sensor_id;sensor_type;location;lat;lon;timestamp;temperature;humidity
11559;DHT22;5835;42.930;25.178;2023-06-01T00:00:16;14.60;99.90
11559;DHT22;5835;42.930;25.178;2023-06-01T00:02:44;14.50;99.90
11559;DHT22;5835;42.930;25.178;2023-06-01T00:05:12;14.60;99.90
11559;DHT22;5835;42.930;25.178;2023-06-01T00:07:40;14.40;99.90
11559;DHT22;5835;42.930;25.178;2023-06-01T00:10:08;14.20;99.90
11559;DHT22;5835;42.930;25.178;2023-06-01T00:12:37;14.40;99.90
11559;DHT22;5835;42.930;25.178;2023-06-01T00:15:06;14.40;99.90
11559;DHT22;5835;42.930;25.178;2023-06-01T00:17:33;14.10;99.90
11559;DHT22;5835;42.930;25.178;2023-06-01T00:20:01;14.00;99.90
11559;DHT22;5835;42.930;25.178;2023-06-01T00:22:33;13.80;99.90
11559;DHT22;5835;42.930;25.178;2023-06-01T00:25:05;13.80;99.90
11559;DHT22;5835;42.930;25.178;2023-06-01T00:27:33;13.90;99.90
11559;DHT22;5835;42.930;25.178;2023-06-01T00:30:02;14.00;99.90
11559;DHT22;5835;42.930;25.178;2023-06-01T00:32:29;14.10;99.90
11559;DHT22;5835;42.930;25.178;2023-06-01T00:34:57;14.00;99.90
11559;DHT22;5835;42.930;25.178;2023-06-01T00:37:24;14.10;99.90
11559;DHT22;5835;42.930;25.178;2023-06-01T00:39:52;14.10;99.90
11559;DHT22;5835;42.930;25.178;2023-06-01T00:42:20;14.10;99.90
11559;DHT22;5835;42.930;25.178;2023-06-01T00:44:47;14.10;99.90
11559;DHT22;5835;42.930;25.178;2023-06-01T00:47:17;14.00;99.90
11559;DHT22;5835;42.930;25.178;2023-06-01T00:49:45;13.90;99.90
11559;DHT22;5835;42.930;25.178;2023-06-01T00:52:14;13.90;99.90
11559;DHT22;5835;42.930;25.178;2023-06-01T00:54:42;14.00;99.90
11559;DHT22;5835;42.930;25.178;2023-06-01T00:57:10;13.90;99.90
11559;DHT22;5835;42.930;25.178;2023-06-01T00:59:37;13.80;99.90
11559;DHT22;5835;42.930;25.178;2023-06-01T01:02:05;13.80;99.90
11559;DHT22;5835;42.930;25.178;2023-06-01T01:04:35;13.70;99.90
11559;DHT22;5835;42.930;25.178;2023-06-01T01:07:15;13.80;99.90
11559;DHT22;5835;42.930;25.178;2023-06-01T01:09:51;13.70;99.90
11559;DHT22;5835;42.930;25.178;2023-06-01T01:12:23;13.70;99.90
11559;DHT22;5835;42.930;25.178;2023-06-01T01:14:56;13.70;99.90
11559;DHT22;5835;42.930;25.178;2023-06-01T01:17:30;13.80;99.90
11559;DHT22;5835;42.930;25.178;2023-06-01T01:20:06;13.80;99.90
11559;DHT22;5835;42.930;25.178;2023-06-01T01:23:00;13.70;99.90
11559;DHT22;5835;42.930;25.178;2023-06-01T01:28:39;13.70;99.90
11559;DHT22;5835;42.930;25.178;2023-06-01T01:31:09;13.80;99.90
11559;DHT22;5835;42.930;25.178;2023-06-01T01:33:39;13.70;99.90
11559;DHT22;5835;42.930;25.178;2023-06-01T01:36:09;13.60;99.90
11559;DHT22;5835;42.930;25.178;2023-06-01T01:38:37;13.60;99.90
11559;DHT22;5835;42.930;25.178;2023-06-01T01:41:05;13.60;99.90
11559;DHT22;5835;42.930;25.178;2023-06-01T01:43:35;13.60;99.90
11559;DHT22;5835;42.930;25.178;2023-06-01T01:46:14;13.50;99.90
11559;DHT22;5835;42.930;25.178;2023-06-01T01:48:50;13.50;99.90
11559;DHT22;5835;42.930;25.178;2023-06-01T01:51:22;13.60;99.90
11559;DHT22;5835;42.930;25.178;2023-06-01T01:53:52;13.50;99.90
11559;DHT22;5835;42.930;25.178;2023-06-01T01:56:21;13.50;99.90
11559;DHT22;5835;42.930;25.178;2023-06-01T01:58:51;13.50;99.90
11559;DHT22;5835;42.930;25.178;2023-06-01T02:01:20;13.50;99.90
11559;DHT22;5835;42.930;25.178;2023-06-01T02:03:58;13.50;99.90
11559;DHT22;5835;42.930;25.178;2023-06-01T02:06:26;13.60;99.90
11559;DHT22;5835;42.930;25.178;2023-06-01T02:08:53;13.70;99.90
11559;DHT22;5835;42.930;25.178;2023-06-01T02:11:21;13.70;99.90
11559;DHT22;5835;42.930;25.178;2023-06-01T02:13:48;13.60;99.90
11559;DHT22;5835;42.930;25.178;2023-06-01T02:16:18;13.60;99.90
11559;DHT22;5835;42.930;25.178;2023-06-01T02:18:47;13.50;99.90
11559;DHT22;5835;42.930;25.178;2023-06-01T02:21:15;13.40;99.90
11559;DHT22;5835;42.930;25.178;2023-06-01T02:23:43;13.40;99.90
11559;DHT22;5835;42.930;25.178;2023-06-01T02:26:11;13.50;99.90
11559;DHT22;5835;42.930;25.178;2023-06-01T02:28:38;13.40;99.90
11559;DHT22;5835;42.930;25.178;2023-06-01T02:31:06;13.30;99.90
11559;DHT22;5835;42.930;25.178;2023-06-01T02:33:35;13.20;99.90
11559;DHT22;5835;42.930;25.178;2023-06-01T02:36:03;13.10;99.90
11559;DHT22;5835;42.930;25.178;2023-06-01T02:38:31;13.10;99.90
11559;DHT22;5835;42.930;25.178;2023-06-01T02:40:58;13.10;99.90
11559;DHT22;5835;42.930;25.178;2023-06-01T02:43:26;13.00;99.90
11559;DHT22;5835;42.930;25.178;2023-06-01T02:45:53;13.00;99.90
11559;DHT22;5835;42.930;25.178;2023-06-01T02:48:21;12.80;99.90
11559;DHT22;5835;42.930;25.178;2023-06-01T02:50:51;12.70;99.90
11559;DHT22;5835;42.930;25.178;2023-06-01T02:53:19;12.70;99.90
11559;DHT22;5835;42.930;25.178;2023-06-01T02:55:47;12.80;99.90
11559;DHT22;5835;42.930;25.178;2023-06-01T02:58:14;13.00;99.90
11559;DHT22;5835;42.930;25.178;2023-06-01T03:00:42;12.90;99.90
11559;DHT22;5835;42.930;25.178;2023-06-01T03:03:10;12.80;99.90
11559;DHT22;5835;42.930;25.178;2023-06-01T03:05:38;12.90;99.90
11559;DHT22;5835;42.930;25.178;2023-06-01T03:08:07;13.00;99.90
11559;DHT22;5835;42.930;25.178;2023-06-01T03:10:35;13.00;99.90
11559;DHT22;5835;42.930;25.178;2023-06-01T03:13:02;13.10;99.90
11559;DHT22;5835;42.930;25.178;2023-06-01T03:15:30;13.20;99.90
11559;DHT22;5835;42.930;25.178;2023-06-01T03:17:57;13.20;99.90
11559;DHT22;5835;42.930;25.178;2023-06-01T03:20:25;13.10;99.90
11559;DHT22;5835;42.930;25.178;2023-06-01T03:22:53;13.10;99.90
11559;DHT22;5835;42.930;25.178;2023-06-01T03:25:22;13.00;99.90
11559;DHT22;5835;42.930;25.178;2023-06-01T03:27:50;13.00;99.90
11559;DHT22;5835;42.930;25.178;2023-06-01T03:30:18;13.00;99.90
11559;DHT22;5835;42.930;25.178;2023-06-01T03:32:47;13.00;99.90
11559;DHT22;5835;42.930;25.178;2023-06-01T03:35:14;13.10;99.90
11559;DHT22;5835;42.930;25.178;2023-06-01T03:37:43;13.30;99.90
11559;DHT22;5835;42.930;25.178;2023-06-01T03:40:11;13.20;99.90
11559;DHT22;5835;42.930;25.178;2023-06-01T03:42:41;13.20;99.90
11559;DHT22;5835;42.930;25.178;2023-06-01T03:45:10;13.20;99.90
11559;DHT22;5835;42.930;25.178;2023-06-01T03:47:38;13.30;99.90
11559;DHT22;5835;42.930;25.178;2023-06-01T03:50:06;13.30;99.90
11559;DHT22;5835;42.930;25.178;2023-06-01T03:52:35;13.20;99.90
11559;DHT22;5835;42.930;25.178;2023-06-01T03:55:04;13.10;99.90
11559;DHT22;5835;42.930;25.178;2023-06-01T03:57:34;13.10;99.90
11559;DHT22;5835;42.930;25.178;2023-06-01T04:00:04;13.00;99.90
11559;DHT22;5835;42.930;25.178;2023-06-01T04:02:45;13.10;99.90
11559;DHT22;5835;42.930;25.178;2023-06-01T04:05:14;13.20;99.90
11559;DHT22;5835;42.930;25.178;2023-06-01T04:07:44;13.20;99.90
11559;DHT22;5835;42.930;25.178;2023-06-01T04:10:12;13.20;99.90
11559;DHT22;5835;42.930;25.178;2023-06-01T04:12:41;13.30;99.90
11559;DHT22;5835;42.930;25.178;2023-06-01T04:15:11;13.30;99.90
11559;DHT22;5835;42.930;25.178;2023-06-01T04:17:40;13.50;99.90
11559;DHT22;5835;42.930;25.178;2023-06-01T04:20:10;13.70;99.90
11559;DHT22;5835;42.930;25.178;2023-06-01T04:22:38;13.80;99.90
11559;DHT22;5835;42.930;25.178;2023-06-01T04:25:07;13.90;99.90
11559;DHT22;5835;42.930;25.178;2023-06-01T04:27:35;14.10;99.90
11559;DHT22;5835;42.930;25.178;2023-06-01T04:30:05;14.00;99.90
11559;DHT22;5835;42.930;25.178;2023-06-01T04:32:36;14.20;99.90
11559;DHT22;5835;42.930;25.178;2023-06-01T04:35:05;14.30;99.90
11559;DHT22;5835;42.930;25.178;2023-06-01T04:37:33;14.40;99.90
11559;DHT22;5835;42.930;25.178;2023-06-01T04:40:01;14.50;99.90
11559;DHT22;5835;42.930;25.178;2023-06-01T04:42:32;14.60;99.90
11559;DHT22;5835;42.930;25.178;2023-06-01T04:45:01;14.70;99.90
11559;DHT22;5835;42.930;25.178;2023-06-01T04:47:35;14.90;99.90
11559;DHT22;5835;42.930;25.178;2023-06-01T04:50:04;15.00;99.90
11559;DHT22;5835;42.930;25.178;2023-06-01T04:52:34;15.10;99.90
11559;DHT22;5835;42.930;25.178;2023-06-01T04:55:02;15.30;99.90
11559;DHT22;5835;42.930;25.178;2023-06-01T04:57:30;15.40;99.90
11559;DHT22;5835;42.930;25.178;2023-06-01T04:59:58;15.50;99.90
11559;DHT22;5835;42.930;25.178;2023-06-01T05:02:27;15.50;92.20
11559;DHT22;5835;42.930;25.178;2023-06-01T05:04:56;15.60;38.40
11559;DHT22;5835;42.930;25.178;2023-06-01T05:07:24;15.70;50.20
11559;DHT22;5835;42.930;25.178;2023-06-01T05:09:51;15.90;12.70
11559;DHT22;5835;42.930;25.178;2023-06-01T05:12:19;16.10;1.00
11559;DHT22;5835;42.930;25.178;2023-06-01T05:14:47;16.20;1.00
11559;DHT22;5835;42.930;25.178;2023-06-01T05:17:15;16.40;1.00
11559;DHT22;5835;42.930;25.178;2023-06-01T05:19:43;16.30;1.00
11559;DHT22;5835;42.930;25.178;2023-06-01T05:22:12;16.40;1.00
11559;DHT22;5835;42.930;25.178;2023-06-01T05:24:40;16.40;1.00
11559;DHT22;5835;42.930;25.178;2023-06-01T05:27:08;16.30;1.00
11559;DHT22;5835;42.930;25.178;2023-06-01T05:29:35;16.50;1.00
11559;DHT22;5835;42.930;25.178;2023-06-01T05:32:04;16.50;1.00
11559;DHT22;5835;42.930;25.178;2023-06-01T05:34:32;16.20;99.90
11559;DHT22;5835;42.930;25.178;2023-06-01T05:37:01;16.10;99.90
11559;DHT22;5835;42.930;25.178;2023-06-01T05:39:30;15.90;99.90
11559;DHT22;5835;42.930;25.178;2023-06-01T05:41:58;15.90;99.90
11559;DHT22;5835;42.930;25.178;2023-06-01T05:44:27;15.90;99.90
11559;DHT22;5835;42.930;25.178;2023-06-01T05:46:54;16.10;99.90
11559;DHT22;5835;42.930;25.178;2023-06-01T05:49:22;16.30;99.90
11559;DHT22;5835;42.930;25.178;2023-06-01T05:51:50;16.20;99.90
11559;DHT22;5835;42.930;25.178;2023-06-01T05:54:18;16.30;99.90
11559;DHT22;5835;42.930;25.178;2023-06-01T05:56:46;16.40;99.90
11559;DHT22;5835;42.930;25.178;2023-06-01T05:59:14;16.60;99.90
11559;DHT22;5835;42.930;25.178;2023-06-01T06:01:42;16.60;42.60
11559;DHT22;5835;42.930;25.178;2023-06-01T06:04:11;16.70;19.10
11559;DHT22;5835;42.930;25.178;2023-06-01T06:06:39;17.00;36.80
11559;DHT22;5835;42.930;25.178;2023-06-01T06:09:06;17.10;1.00
11559;DHT22;5835;42.930;25.178;2023-06-01T06:11:35;17.10;1.00
11559;DHT22;5835;42.930;25.178;2023-06-01T06:14:06;17.30;1.00
11559;DHT22;5835;42.930;25.178;2023-06-01T06:16:33;17.50;1.00
11559;DHT22;5835;42.930;25.178;2023-06-01T06:19:01;17.60;1.00
11559;DHT22;5835;42.930;25.178;2023-06-01T06:21:28;17.70;1.00
11559;DHT22;5835;42.930;25.178;2023-06-01T06:23:57;18.00;1.00
11559;DHT22;5835;42.930;25.178;2023-06-01T06:26:25;18.00;99.90
11559;DHT22;5835;42.930;25.178;2023-06-01T06:28:53;18.20;1.00
11559;DHT22;5835;42.930;25.178;2023-06-01T06:31:22;18.30;1.00
11559;DHT22;5835;42.930;25.178;2023-06-01T06:33:59;18.50;99.90
11559;DHT22;5835;42.930;25.178;2023-06-01T06:36:27;18.50;1.00
11559;DHT22;5835;42.930;25.178;2023-06-01T06:38:55;18.80;1.00
11559;DHT22;5835;42.930;25.178;2023-06-01T06:41:22;18.70;99.90
11559;DHT22;5835;42.930;25.178;2023-06-01T06:43:51;18.80;99.90
11559;DHT22;5835;42.930;25.178;2023-06-01T06:46:18;18.90;99.90
11559;DHT22;5835;42.930;25.178;2023-06-01T06:48:47;19.20;99.90
11559;DHT22;5835;42.930;25.178;2023-06-01T06:51:15;19.40;1.00
11559;DHT22;5835;42.930;25.178;2023-06-01T06:53:42;19.60;1.00
11559;DHT22;5835;42.930;25.178;2023-06-01T06:56:10;19.60;99.90
11559;DHT22;5835;42.930;25.178;2023-06-01T06:58:38;20.10;1.00
11559;DHT22;5835;42.930;25.178;2023-06-01T07:01:05;20.10;1.00
11559;DHT22;5835;42.930;25.178;2023-06-01T07:03:33;20.00;99.90
11559;DHT22;5835;42.930;25.178;2023-06-01T07:06:02;20.40;99.90
11559;DHT22;5835;42.930;25.178;2023-06-01T07:08:30;20.50;1.00
11559;DHT22;5835;42.930;25.178;2023-06-01T07:11:00;20.60;1.00
11559;DHT22;5835;42.930;25.178;2023-06-01T07:13:28;20.70;99.90
11559;DHT22;5835;42.930;25.178;2023-06-01T07:15:55;20.90;99.90
11559;DHT22;5835;42.930;25.178;2023-06-01T07:18:23;21.20;99.90
11559;DHT22;5835;42.930;25.178;2023-06-01T07:20:50;21.20;99.90
11559;DHT22;5835;42.930;25.178;2023-06-01T07:23:19;21.50;1.00
11559;DHT22;5835;42.930;25.178;2023-06-01T07:25:47;21.80;91.30
11559;DHT22;5835;42.930;25.178;2023-06-01T07:28:14;22.00;1.00
11559;DHT22;5835;42.930;25.178;2023-06-01T07:30:42;21.90;1.00
11559;DHT22;5835;42.930;25.178;2023-06-01T07:33:09;21.70;1.00
11559;DHT22;5835;42.930;25.178;2023-06-01T07:35:37;22.20;1.00
11559;DHT22;5835;42.930;25.178;2023-06-01T07:38:05;22.50;1.00
11559;DHT22;5835;42.930;25.178;2023-06-01T07:40:34;22.20;1.00
11559;DHT22;5835;42.930;25.178;2023-06-01T07:43:02;22.60;1.00
11559;DHT22;5835;42.930;25.178;2023-06-01T07:45:30;22.30;1.00
11559;DHT22;5835;42.930;25.178;2023-06-01T07:47:57;22.20;1.00
11559;DHT22;5835;42.930;25.178;2023-06-01T07:50:26;22.60;1.00
11559;DHT22;5835;42.930;25.178;2023-06-01T07:52:57;21.80;99.90
11559;DHT22;5835;42.930;25.178;2023-06-01T07:55:24;22.60;99.90
11559;DHT22;5835;42.930;25.178;2023-06-01T07:57:53;22.80;99.90
11559;DHT22;5835;42.930;25.178;2023-06-01T08:00:21;22.90;99.90
11559;DHT22;5835;42.930;25.178;2023-06-01T08:02:48;22.90;99.90
11559;DHT22;5835;42.930;25.178;2023-06-01T08:05:16;23.00;99.90
11559;DHT22;5835;42.930;25.178;2023-06-01T08:07:44;22.70;99.90
11559;DHT22;5835;42.930;25.178;2023-06-01T08:10:13;22.70;99.90
11559;DHT22;5835;42.930;25.178;2023-06-01T08:12:40;22.30;99.90
11559;DHT22;5835;42.930;25.178;2023-06-01T08:15:11;22.10;99.90
11559;DHT22;5835;42.930;25.178;2023-06-01T08:17:38;22.50;1.00
11559;DHT22;5835;42.930;25.178;2023-06-01T08:20:07;22.80;1.00
11559;DHT22;5835;42.930;25.178;2023-06-01T08:22:36;22.70;1.00
11559;DHT22;5835;42.930;25.178;2023-06-01T08:25:05;22.70;99.90
11559;DHT22;5835;42.930;25.178;2023-06-01T08:27:33;22.90;1.00
11559;DHT22;5835;42.930;25.178;2023-06-01T08:30:01;22.90;99.90
11559;DHT22;5835;42.930;25.178;2023-06-01T08:32:31;23.00;1.00
11559;DHT22;5835;42.930;25.178;2023-06-01T08:34:59;23.20;1.00
11559;DHT22;5835;42.930;25.178;2023-06-01T08:37:26;22.60;99.90
11559;DHT22;5835;42.930;25.178;2023-06-01T08:39:55;23.20;1.00
11559;DHT22;5835;42.930;25.178;2023-06-01T08:42:28;23.20;99.90
11559;DHT22;5835;42.930;25.178;2023-06-01T08:44:58;23.20;99.90
11559;DHT22;5835;42.930;25.178;2023-06-01T08:47:25;23.10;99.90
11559;DHT22;5835;42.930;25.178;2023-06-01T08:49:58;23.30;1.00
11559;DHT22;5835;42.930;25.178;2023-06-01T08:52:28;23.50;1.00
11559;DHT22;5835;42.930;25.178;2023-06-01T08:54:58;23.30;1.00
11559;DHT22;5835;42.930;25.178;2023-06-01T08:57:27;23.70;99.90
11559;DHT22;5835;42.930;25.178;2023-06-01T08:59:54;23.70;99.90
11559;DHT22;5835;42.930;25.178;2023-06-01T09:02:22;24.10;99.90
11559;DHT22;5835;42.930;25.178;2023-06-01T09:04:51;24.40;99.90
11559;DHT22;5835;42.930;25.178;2023-06-01T09:07:20;24.40;99.90
11559;DHT22;5835;42.930;25.178;2023-06-01T09:09:48;24.30;99.90
11559;DHT22;5835;42.930;25.178;2023-06-01T09:12:23;24.40;99.90
11559;DHT22;5835;42.930;25.178;2023-06-01T09:15:10;24.60;99.90
11559;DHT22;5835;42.930;25.178;2023-06-01T09:17:39;25.00;99.90
11559;DHT22;5835;42.930;25.178;2023-06-01T09:20:11;24.90;63.90
11559;DHT22;5835;42.930;25.178;2023-06-01T09:22:42;25.20;37.10
11559;DHT22;5835;42.930;25.178;2023-06-01T09:25:12;25.60;1.00
11559;DHT22;5835;42.930;25.178;2023-06-01T09:27:45;25.70;1.00
11559;DHT22;5835;42.930;25.178;2023-06-01T09:30:13;25.40;1.00
11559;DHT22;5835;42.930;25.178;2023-06-01T09:32:41;25.90;1.00
11559;DHT22;5835;42.930;25.178;2023-06-01T09:35:10;25.80;1.00
11559;DHT22;5835;42.930;25.178;2023-06-01T09:37:38;25.90;1.00
11559;DHT22;5835;42.930;25.178;2023-06-01T09:40:18;25.70;1.00
11559;DHT22;5835;42.930;25.178;2023-06-01T09:42:46;25.70;1.00
11559;DHT22;5835;42.930;25.178;2023-06-01T09:45:17;25.50;1.00
11559;DHT22;5835;42.930;25.178;2023-06-01T09:47:45;25.00;1.00
11559;DHT22;5835;42.930;25.178;2023-06-01T09:50:32;24.70;1.00
11559;DHT22;5835;42.930;25.178;2023-06-01T09:53:01;25.50;1.00
11559;DHT22;5835;42.930;25.178;2023-06-01T09:55:30;25.40;1.00
11559;DHT22;5835;42.930;25.178;2023-06-01T09:58:18;25.10;1.00
11559;DHT22;5835;42.930;25.178;2023-06-01T10:00:48;25.00;1.00
11559;DHT22;5835;42.930;25.178;2023-06-01T10:03:16;24.90;1.00
11559;DHT22;5835;42.930;25.178;2023-06-01T10:05:45;25.30;1.00
11559;DHT22;5835;42.930;25.178;2023-06-01T10:08:14;25.90;1.00
11559;DHT22;5835;42.930;25.178;2023-06-01T10:10:45;26.00;1.00
11559;DHT22;5835;42.930;25.178;2023-06-01T10:13:13;26.50;1.00
11559;DHT22;5835;42.930;25.178;2023-06-01T10:15:42;26.00;1.00
11559;DHT22;5835;42.930;25.178;2023-06-01T10:18:09;25.80;1.00
11559;DHT22;5835;42.930;25.178;2023-06-01T10:20:37;25.90;1.00
11559;DHT22;5835;42.930;25.178;2023-06-01T10:23:06;25.70;1.00
11559;DHT22;5835;42.930;25.178;2023-06-01T10:25:38;25.40;1.00
11559;DHT22;5835;42.930;25.178;2023-06-01T10:28:11;25.20;1.00
11559;DHT22;5835;42.930;25.178;2023-06-01T10:30:39;25.40;1.00
11559;DHT22;5835;42.930;25.178;2023-06-01T10:33:07;25.60;1.00
11559;DHT22;5835;42.930;25.178;2023-06-01T10:36:02;26.00;1.00
11559;DHT22;5835;42.930;25.178;2023-06-01T10:38:29;26.10;1.00
11559;DHT22;5835;42.930;25.178;2023-06-01T10:41:25;26.40;1.00
11559;DHT22;5835;42.930;25.178;2023-06-01T10:43:56;26.30;1.00
11559;DHT22;5835;42.930;25.178;2023-06-01T10:46:40;26.60;1.00
11559;DHT22;5835;42.930;25.178;2023-06-01T10:49:08;26.90;1.00
11559;DHT22;5835;42.930;25.178;2023-06-01T10:51:36;27.00;1.00
11559;DHT22;5835;42.930;25.178;2023-06-01T10:54:28;26.90;1.00
11559;DHT22;5835;42.930;25.178;2023-06-01T10:57:19;26.80;1.00
11559;DHT22;5835;42.930;25.178;2023-06-01T11:00:13;27.20;1.00
11559;DHT22;5835;42.930;25.178;2023-06-01T11:02:52;26.90;1.00
11559;DHT22;5835;42.930;25.178;2023-06-01T11:05:40;26.70;1.00
11559;DHT22;5835;42.930;25.178;2023-06-01T11:11:15;26.90;1.00
11559;DHT22;5835;42.930;25.178;2023-06-01T11:13:44;27.10;1.00
11559;DHT22;5835;42.930;25.178;2023-06-01T11:16:33;27.00;1.00
11559;DHT22;5835;42.930;25.178;2023-06-01T11:19:02;26.90;1.00
11559;DHT22;5835;42.930;25.178;2023-06-01T11:21:32;26.80;1.00
11559;DHT22;5835;42.930;25.178;2023-06-01T11:24:04;26.60;1.00
11559;DHT22;5835;42.930;25.178;2023-06-01T11:26:36;25.70;1.00
11559;DHT22;5835;42.930;25.178;2023-06-01T11:29:10;25.10;99.90
11559;DHT22;5835;42.930;25.178;2023-06-01T11:31:41;24.70;1.00
11559;DHT22;5835;42.930;25.178;2023-06-01T11:34:10;24.40;1.00
11559;DHT22;5835;42.930;25.178;2023-06-01T11:36:39;24.10;99.90
11559;DHT22;5835;42.930;25.178;2023-06-01T11:39:17;23.70;99.90
11559;DHT22;5835;42.930;25.178;2023-06-01T11:41:48;22.40;99.90
11559;DHT22;5835;42.930;25.178;2023-06-01T11:44:15;22.20;1.00
11559;DHT22;5835;42.930;25.178;2023-06-01T11:46:57;22.30;1.00
11559;DHT22;5835;42.930;25.178;2023-06-01T11:49:25;22.10;99.90
11559;DHT22;5835;42.930;25.178;2023-06-01T11:51:52;21.70;11.20
11559;DHT22;5835;42.930;25.178;2023-06-01T11:54:23;21.60;16.30
11559;DHT22;5835;42.930;25.178;2023-06-01T11:56:50;21.80;1.00
11559;DHT22;5835;42.930;25.178;2023-06-01T11:59:19;21.70;1.00
11559;DHT22;5835;42.930;25.178;2023-06-01T12:01:49;21.80;1.00
11559;DHT22;5835;42.930;25.178;2023-06-01T12:04:21;22.00;99.90
11559;DHT22;5835;42.930;25.178;2023-06-01T12:06:49;21.50;99.90
11559;DHT22;5835;42.930;25.178;2023-06-01T12:09:17;21.60;1.00
11559;DHT22;5835;42.930;25.178;2023-06-01T12:11:46;21.70;99.90
11559;DHT22;5835;42.930;25.178;2023-06-01T12:14:15;21.20;1.00
11559;DHT22;5835;42.930;25.178;2023-06-01T12:16:56;20.90;1.00
11559;DHT22;5835;42.930;25.178;2023-06-01T12:19:26;21.20;1.00
11559;DHT22;5835;42.930;25.178;2023-06-01T12:21:55;20.70;99.90
11559;DHT22;5835;42.930;25.178;2023-06-01T12:24:26;20.70;1.00
11559;DHT22;5835;42.930;25.178;2023-06-01T12:26:56;21.00;99.90
11559;DHT22;5835;42.930;25.178;2023-06-01T12:29:37;20.80;1.00
11559;DHT22;5835;42.930;25.178;2023-06-01T12:32:06;20.60;99.90
11559;DHT22;5835;42.930;25.178;2023-06-01T12:34:36;20.70;1.00
11559;DHT22;5835;42.930;25.178;2023-06-01T12:37:14;20.80;99.90
11559;DHT22;5835;42.930;25.178;2023-06-01T12:39:42;20.80;33.40
11559;DHT22;5835;42.930;25.178;2023-06-01T12:42:10;20.60;99.90
11559;DHT22;5835;42.930;25.178;2023-06-01T12:44:38;20.40;99.90
11559;DHT22;5835;42.930;25.178;2023-06-01T12:47:07;19.70;1.00
11559;DHT22;5835;42.930;25.178;2023-06-01T12:49:36;18.50;99.90
11559;DHT22;5835;42.930;25.178;2023-06-01T12:52:06;18.30;99.90
11559;DHT22;5835;42.930;25.178;2023-06-01T12:54:34;18.60;17.50
11559;DHT22;5835;42.930;25.178;2023-06-01T12:57:02;18.80;71.90
11559;DHT22;5835;42.930;25.178;2023-06-01T12:59:30;19.00;1.00
11559;DHT22;5835;42.930;25.178;2023-06-01T13:01:57;19.20;1.00
11559;DHT22;5835;42.930;25.178;2023-06-01T13:04:25;19.40;1.00
11559;DHT22;5835;42.930;25.178;2023-06-01T13:06:54;19.80;26.40
11559;DHT22;5835;42.930;25.178;2023-06-01T13:09:21;20.20;1.00
11559;DHT22;5835;42.930;25.178;2023-06-01T13:11:49;20.00;1.00
11559;DHT22;5835;42.930;25.178;2023-06-01T13:14:17;19.90;1.00
11559;DHT22;5835;42.930;25.178;2023-06-01T13:16:44;20.10;1.00
11559;DHT22;5835;42.930;25.178;2023-06-01T13:19:12;20.20;1.00
11559;DHT22;5835;42.930;25.178;2023-06-01T13:21:39;20.40;1.00
11559;DHT22;5835;42.930;25.178;2023-06-01T13:24:08;20.60;90.00
11559;DHT22;5835;42.930;25.178;2023-06-01T13:26:36;20.70;1.00
11559;DHT22;5835;42.930;25.178;2023-06-01T13:29:04;20.50;99.90
11559;DHT22;5835;42.930;25.178;2023-06-01T13:31:32;20.20;6.60
11559;DHT22;5835;42.930;25.178;2023-06-01T13:34:01;20.50;45.30
11559;DHT22;5835;42.930;25.178;2023-06-01T13:36:29;20.40;1.00
11559;DHT22;5835;42.930;25.178;2023-06-01T13:38:56;20.30;99.90
11559;DHT22;5835;42.930;25.178;2023-06-01T13:41:26;20.50;99.90
11559;DHT22;5835;42.930;25.178;2023-06-01T13:43:53;20.40;99.90
11559;DHT22;5835;42.930;25.178;2023-06-01T13:46:20;20.30;99.90
11559;DHT22;5835;42.930;25.178;2023-06-01T13:48:48;19.80;1.00
11559;DHT22;5835;42.930;25.178;2023-06-01T13:51:16;19.80;84.60
11559;DHT22;5835;42.930;25.178;2023-06-01T13:53:43;19.90;99.90
11559;DHT22;5835;42.930;25.178;2023-06-01T13:56:11;20.00;1.00
11559;DHT22;5835;42.930;25.178;2023-06-01T13:58:40;20.00;99.90
11559;DHT22;5835;42.930;25.178;2023-06-01T14:01:07;20.10;99.90
11559;DHT22;5835;42.930;25.178;2023-06-01T14:03:35;20.10;99.90
11559;DHT22;5835;42.930;25.178;2023-06-01T14:06:03;20.00;99.90
11559;DHT22;5835;42.930;25.178;2023-06-01T14:08:31;20.10;29.50
11559;DHT22;5835;42.930;25.178;2023-06-01T14:10:58;20.20;1.00
11559;DHT22;5835;42.930;25.178;2023-06-01T14:13:26;20.20;1.00
11559;DHT22;5835;42.930;25.178;2023-06-01T14:15:55;20.20;1.00
11559;DHT22;5835;42.930;25.178;2023-06-01T14:18:26;20.30;99.90
11559;DHT22;5835;42.930;25.178;2023-06-01T14:20:53;20.30;1.00
11559;DHT22;5835;42.930;25.178;2023-06-01T14:23:21;20.40;99.90
11559;DHT22;5835;42.930;25.178;2023-06-01T14:25:49;20.40;99.90
11559;DHT22;5835;42.930;25.178;2023-06-01T14:28:16;20.40;1.00
11559;DHT22;5835;42.930;25.178;2023-06-01T14:30:44;20.60;1.00
11559;DHT22;5835;42.930;25.178;2023-06-01T14:33:13;20.60;1.00
11559;DHT22;5835;42.930;25.178;2023-06-01T14:35:41;20.70;99.90
11559;DHT22;5835;42.930;25.178;2023-06-01T14:38:09;20.60;1.00
11559;DHT22;5835;42.930;25.178;2023-06-01T14:40:37;20.50;1.00
11559;DHT22;5835;42.930;25.178;2023-06-01T14:43:04;20.50;1.00
11559;DHT22;5835;42.930;25.178;2023-06-01T14:45:32;20.60;99.90
11559;DHT22;5835;42.930;25.178;2023-06-01T14:47:59;20.70;99.90
11559;DHT22;5835;42.930;25.178;2023-06-01T14:50:28;20.80;99.90
11559;DHT22;5835;42.930;25.178;2023-06-01T14:52:56;20.60;1.00
11559;DHT22;5835;42.930;25.178;2023-06-01T14:55:25;20.50;99.90
11559;DHT22;5835;42.930;25.178;2023-06-01T14:57:52;20.50;99.90
11559;DHT22;5835;42.930;25.178;2023-06-01T15:00:20;20.50;99.90
11559;DHT22;5835;42.930;25.178;2023-06-01T15:02:48;20.50;99.90
11559;DHT22;5835;42.930;25.178;2023-06-01T15:05:16;20.70;1.00
11559;DHT22;5835;42.930;25.178;2023-06-01T15:07:44;20.90;99.90
11559;DHT22;5835;42.930;25.178;2023-06-01T15:10:12;21.00;2.90
11559;DHT22;5835;42.930;25.178;2023-06-01T15:12:39;21.20;99.90
11559;DHT22;5835;42.930;25.178;2023-06-01T15:15:07;21.40;1.00
11559;DHT22;5835;42.930;25.178;2023-06-01T15:17:35;21.60;99.90
11559;DHT22;5835;42.930;25.178;2023-06-01T15:20:03;22.10;1.00
11559;DHT22;5835;42.930;25.178;2023-06-01T15:22:32;22.40;1.00
11559;DHT22;5835;42.930;25.178;2023-06-01T15:25:01;22.40;1.00
11559;DHT22;5835;42.930;25.178;2023-06-01T15:27:30;22.40;99.90
11559;DHT22;5835;42.930;25.178;2023-06-01T15:29:57;22.70;99.90
11559;DHT22;5835;42.930;25.178;2023-06-01T15:32:25;23.10;99.90
11559;DHT22;5835;42.930;25.178;2023-06-01T15:34:52;22.80;99.90
11559;DHT22;5835;42.930;25.178;2023-06-01T15:37:20;22.50;99.90
11559;DHT22;5835;42.930;25.178;2023-06-01T15:39:48;22.40;99.90
11559;DHT22;5835;42.930;25.178;2023-06-01T15:42:17;22.40;99.90
11559;DHT22;5835;42.930;25.178;2023-06-01T15:44:45;22.70;99.90
11559;DHT22;5835;42.930;25.178;2023-06-01T15:47:13;22.80;99.90
11559;DHT22;5835;42.930;25.178;2023-06-01T15:49:40;22.80;99.90
11559;DHT22;5835;42.930;25.178;2023-06-01T15:52:08;22.60;99.90
11559;DHT22;5835;42.930;25.178;2023-06-01T15:54:36;22.50;99.90
11559;DHT22;5835;42.930;25.178;2023-06-01T15:57:04;22.50;99.90